PAGY/SGY METAR and TAF weather

Enter ICAO airport designator
Station Type Date Time Source
PAGY METAR 2019/11/13 01:53 UTC NOAA

PAGY 130153Z AUTO 32004KT 10SM SCT037 OVC048 03/M02 A2975 RMK SLP075 T00281022 TSNO $ VIA AUTODIAL


Station Type Date Time Source
PAGY Decoded METAR 2019/11/13 01:53 UTC NOAA

SKAGWAY AIRPORT, AK, United States (PAGY) 59-28N 135-19W 5M
Nov 12, 2019 - 08:53 PM EST / 2019.11.13 0153 UTC
Wind: from the NW (320 degrees) at 5 MPH (4 KT):0
Visibility: 10 mile(s):0
Sky conditions: overcast
Temperature: 37.0 F (2.8 C)
Dew Point: 28.0 F (-2.2 C)
Relative Humidity: 69%
Pressure (altimeter): 29.75 in. Hg (1007 hPa)
ob: PAGY 130153Z AUTO 32004KT 10SM SCT037 OVC048 03/M02 A2975 RMK SLP075 T00281022 TSNO VIA AUTODIAL
cycle: 2

Station Type Date Time Source
PAGY TAF 2019/11/12 18:30 UTC NOAA

TAF PAGY 121729Z 1218/1318 04018G32KT P6SM FEW040 OVC050
TEMPO 1218/1222 -RA BKN050 OVC060
FM122200 04012G25KT P6SM -RA SCT025 OVC040
FM130600 21010KT 4SM -RA BR SCT010 OVC025
FM131200 21015G25KT P6SM -RA SCT010 OVC025
AMD LTD TO CLD VIS AND WIND

Example: see airport list